createdAt,value
2022-08-07T00:02:36.787Z,70.97
2022-08-07T00:05:09.139Z,71.10
2022-08-07T00:07:41.630Z,70.40
2022-08-07T00:10:26.909Z,71.63
2022-08-07T00:13:23.609Z,71.30
2022-08-07T00:15:55.410Z,71.42
2022-08-07T00:18:30.188Z,71.28
2022-08-07T00:21:07.905Z,71.59
2022-08-07T00:23:56.596Z,71.48
2022-08-07T00:26:58.941Z,72.39
2022-08-07T00:29:23.396Z,72.23
2022-08-07T00:32:01.276Z,71.78
2022-08-07T00:34:32.983Z,72.22
2022-08-07T00:37:06.954Z,72.41
2022-08-07T00:39:45.205Z,71.62
2022-08-07T00:42:29.172Z,72.61
2022-08-07T00:45:00.873Z,72.45
2022-08-07T00:48:09.821Z,72.44
2022-08-07T00:50:50.242Z,72.90
2022-08-07T00:53:22.576Z,72.33
2022-08-07T00:56:02.846Z,71.62
2022-08-07T00:58:35.417Z,71.92
2022-08-07T01:01:07.523Z,71.23
2022-08-07T01:03:56.055Z,71.65
2022-08-07T01:06:32.731Z,71.38
2022-08-07T01:09:05.488Z,71.44
2022-08-07T01:12:09.180Z,70.86
2022-08-07T01:14:32.788Z,70.68
2022-08-07T01:17:08.656Z,71.31
2022-08-07T01:19:42.048Z,71.47
2022-08-07T01:22:29.326Z,71.42
2022-08-07T01:25:05.186Z,71.12
2022-08-07T01:27:54.847Z,71.13
2022-08-07T01:30:27.757Z,71.80
2022-08-07T01:33:02.328Z,70.85
2022-08-07T01:35:52.916Z,70.61
2022-08-07T01:38:31.661Z,70.72
2022-08-07T01:41:12.651Z,70.74
2022-08-07T01:43:59.495Z,70.79
2022-08-07T01:46:38.040Z,71.04
2022-08-07T01:49:14.252Z,71.14
2022-08-07T01:52:01.729Z,71.16
2022-08-07T01:54:39.291Z,71.18
2022-08-07T01:57:25.586Z,70.60
2022-08-07T02:00:13.031Z,71.11
2022-08-07T02:03:11.902Z,70.87
2022-08-07T02:06:08.834Z,71.11
2022-08-07T02:08:57.519Z,70.59
2022-08-07T02:12:04.089Z,71.04
2022-08-07T02:14:40.571Z,70.73
2022-08-07T02:17:27.767Z,71.09
2022-08-07T02:20:17.201Z,70.93
2022-08-07T02:22:55.106Z,70.45
2022-08-07T02:25:47.225Z,70.82
2022-08-07T02:28:24.724Z,70.51
2022-08-07T02:31:18.979Z,71.21
2022-08-07T02:34:03.612Z,71.04
2022-08-07T02:36:43.286Z,71.31
2022-08-07T02:39:43.362Z,71.21
2022-08-07T02:42:16.856Z,70.96
2022-08-07T02:44:53.153Z,71.12
2022-08-07T02:47:27.972Z,71.20
2022-08-07T02:50:16.353Z,71.41
2022-08-07T02:53:03.478Z,70.90
2022-08-07T02:56:03.309Z,70.80
2022-08-07T02:58:33.776Z,71.67
2022-08-07T03:01:16.040Z,71.52
2022-08-07T03:03:52.055Z,71.69
2022-08-07T03:06:34.613Z,72.08
2022-08-07T03:09:12.320Z,72.41
2022-08-07T03:11:51.645Z,72.39
2022-08-07T03:14:33.974Z,72.18
2022-08-07T03:17:08.771Z,72.57
2022-08-07T03:19:42.419Z,72.60
2022-08-07T03:22:29.711Z,73.07
2022-08-07T03:25:03.794Z,73.20
2022-08-07T03:27:59.235Z,73.41
2022-08-07T03:30:33.945Z,73.31
2022-08-07T03:33:08.583Z,72.90
2022-08-07T03:35:50.196Z,72.49
2022-08-07T03:38:29.740Z,72.13
2022-08-07T03:41:10.382Z,72.10
2022-08-07T03:43:56.870Z,72.59
2022-08-07T03:46:34.878Z,72.31
2022-08-07T03:49:07.392Z,72.25
2022-08-07T03:51:47.057Z,72.19
2022-08-07T03:54:35.896Z,71.89
2022-08-07T03:58:32.706Z,71.70
2022-08-07T04:00:08.910Z,71.37
2022-08-07T04:02:51.940Z,70.99
2022-08-07T04:05:39.322Z,70.66
2022-08-07T04:08:18.621Z,70.68
2022-08-07T04:12:20.882Z,70.56
2022-08-07T04:13:49.628Z,70.33
2022-08-07T04:16:43.093Z,70.54
2022-08-07T04:19:51.023Z,70.33
2022-08-07T04:22:29.511Z,70.29
2022-08-07T04:25:12.114Z,69.57
2022-08-07T04:27:59.108Z,69.84
2022-08-07T04:30:39.587Z,69.34
2022-08-07T04:33:27.847Z,69.53
2022-08-07T04:36:00.763Z,69.20
2022-08-07T04:38:40.099Z,67.83
2022-08-07T04:41:18.071Z,66.57
2022-08-07T04:44:09.811Z,64.75
2022-08-07T04:47:03.947Z,63.43
2022-08-07T04:50:03.809Z,63.23
2022-08-07T04:52:52.212Z,63.64
2022-08-07T04:58:07.680Z,64.10
2022-08-07T04:59:18.407Z,62.63
2022-08-07T05:02:05.035Z,61.42
2022-08-07T05:04:50.340Z,60.33
2022-08-07T05:07:51.707Z,59.49
2022-08-07T05:11:02.326Z,58.89
2022-08-07T05:14:53.338Z,57.79
2022-08-07T05:16:35.045Z,56.95
2022-08-07T05:19:19.267Z,57.07
2022-08-07T05:22:04.563Z,56.11
2022-08-07T05:24:43.043Z,55.38
2022-08-07T05:28:02.574Z,54.96
2022-08-07T05:30:12.474Z,55.49
2022-08-07T05:32:48.446Z,54.46
2022-08-07T05:35:33.038Z,54.63
2022-08-07T05:38:09.649Z,53.93
2022-08-07T05:40:50.378Z,53.23
2022-08-07T05:43:49.797Z,53.43
2022-08-07T05:46:19.090Z,52.54
2022-08-07T05:48:59.163Z,52.27
2022-08-07T05:51:39.971Z,52.26
2022-08-07T05:54:30.251Z,51.89
2022-08-07T05:57:08.152Z,51.94
2022-08-07T05:59:55.968Z,51.07
2022-08-07T06:02:35.165Z,51.08
2022-08-07T06:05:15.753Z,50.94
2022-08-07T06:08:14.391Z,50.46
2022-08-07T06:10:46.241Z,50.16
2022-08-07T06:14:10.548Z,49.78
2022-08-07T06:16:16.916Z,49.69
2022-08-07T06:18:51.945Z,50.17
2022-08-07T06:22:15.473Z,49.55
2022-08-07T06:24:38.342Z,49.67
2022-08-07T06:27:13.035Z,50.12
2022-08-07T06:30:04.740Z,49.94
2022-08-07T06:32:36.551Z,49.37
2022-08-07T06:35:17.964Z,49.63
2022-08-07T06:37:52.836Z,49.72
2022-08-07T06:40:24.584Z,49.89
2022-08-07T06:42:57.448Z,49.28
2022-08-07T06:45:44.305Z,49.81
2022-08-07T06:48:25.303Z,48.69
2022-08-07T06:51:08.163Z,48.67
2022-08-07T06:55:29.815Z,48.77
2022-08-07T06:56:49.500Z,48.78
2022-08-07T07:00:12.994Z,47.99
2022-08-07T07:02:54.371Z,48.64
2022-08-07T07:06:03.199Z,47.73
2022-08-07T07:08:18.801Z,47.82
2022-08-07T07:10:57.866Z,47.51
2022-08-07T07:13:58.278Z,46.94
2022-08-07T07:16:45.121Z,47.42
2022-08-07T07:19:55.612Z,47.04
2022-08-07T07:22:36.300Z,48.06
2022-08-07T07:26:32.120Z,47.39
2022-08-07T07:28:48.303Z,47.47
2022-08-07T07:31:22.821Z,47.82
2022-08-07T07:34:01.402Z,47.33
2022-08-07T07:36:33.923Z,47.72
2022-08-07T07:39:07.625Z,47.16
2022-08-07T07:41:50.797Z,46.71
2022-08-07T07:44:35.194Z,47.46
2022-08-07T07:47:15.706Z,47.33
2022-08-07T07:50:33.944Z,46.23
2022-08-07T07:52:49.019Z,46.49
2022-08-07T07:55:21.231Z,46.84
2022-08-07T07:57:58.358Z,46.79
2022-08-07T08:00:34.144Z,46.49
2022-08-07T08:03:16.669Z,46.55
2022-08-07T08:05:54.074Z,46.37
2022-08-07T08:08:35.471Z,45.62
2022-08-07T08:11:16.255Z,46.34
2022-08-07T08:13:54.729Z,46.96
2022-08-07T08:16:57.301Z,47.63
2022-08-07T08:20:19.429Z,55.12
2022-08-07T08:23:03.227Z,58.74
2022-08-07T08:25:56.526Z,61.21
2022-08-07T08:28:37.637Z,61.99
2022-08-07T08:31:15.970Z,63.02
2022-08-07T08:33:55.908Z,62.66
2022-08-07T08:36:34.555Z,63.37
2022-08-07T08:39:07.773Z,63.62
2022-08-07T08:42:05.825Z,63.15
2022-08-07T08:44:53.346Z,61.56
2022-08-07T08:47:34.453Z,60.43
2022-08-07T08:50:38.845Z,60.20
2022-08-07T08:53:21.243Z,60.39
2022-08-07T08:56:08.791Z,60.57
2022-08-07T08:59:17.461Z,60.86
2022-08-07T09:02:10.523Z,60.85
2022-08-07T09:05:14.797Z,60.45
2022-08-07T09:07:59.551Z,61.21
2022-08-07T09:10:46.300Z,61.41
2022-08-07T09:13:37.132Z,60.89
2022-08-07T09:16:21.901Z,61.13
2022-08-07T09:18:58.759Z,60.47
2022-08-07T09:24:28.321Z,61.61
2022-08-07T09:25:27.954Z,62.19
2022-08-07T09:28:02.974Z,61.66
2022-08-07T09:31:03.139Z,62.61
2022-08-07T09:33:57.287Z,62.25
2022-08-07T09:37:01.929Z,62.29
2022-08-07T09:39:53.988Z,62.03
2022-08-07T09:42:50.326Z,62.40
2022-08-07T09:47:25.882Z,62.08
2022-08-07T09:50:01.909Z,62.00
2022-08-07T09:52:33.738Z,63.29
2022-08-07T09:55:17.034Z,62.59
2022-08-07T09:58:32.214Z,62.47
2022-08-07T10:01:50.637Z,62.27
2022-08-07T10:04:58.474Z,62.59
2022-08-07T10:07:53.576Z,62.30
2022-08-07T10:11:16.522Z,62.70
2022-08-07T10:14:11.274Z,62.13
2022-08-07T10:17:03.717Z,62.71
2022-08-07T10:19:57.028Z,61.90
2022-08-07T10:22:33.767Z,62.40
2022-08-07T10:25:42.536Z,62.68
2022-08-07T10:28:49.376Z,62.35
2022-08-07T10:32:36.396Z,62.68
2022-08-07T10:35:55.461Z,62.84
2022-08-07T10:38:48.868Z,62.63
2022-08-07T10:41:54.666Z,63.52
2022-08-07T10:44:55.777Z,62.29
2022-08-07T10:47:53.241Z,62.38
2022-08-07T10:50:52.118Z,61.97
2022-08-07T10:54:00.032Z,62.38
2022-08-07T10:56:49.814Z,62.07
2022-08-07T10:59:30.418Z,62.31
2022-08-07T11:02:38.118Z,62.68
2022-08-07T11:05:35.684Z,63.44
2022-08-07T11:08:53.436Z,64.43
2022-08-07T11:11:59.334Z,65.07
2022-08-07T11:14:57.329Z,64.96
2022-08-07T11:17:48.562Z,65.97
2022-08-07T11:20:22.594Z,65.03
2022-08-07T11:23:07.214Z,64.78
2022-08-07T11:26:07.919Z,64.43
2022-08-07T11:28:55.675Z,64.27
2022-08-07T11:32:11.825Z,64.21
2022-08-07T11:34:58.183Z,64.00
2022-08-07T11:38:12.933Z,63.63
2022-08-07T11:40:54.143Z,63.19
2022-08-07T11:43:55.022Z,63.57
2022-08-07T11:46:57.517Z,63.25
2022-08-07T11:50:31.228Z,63.94
2022-08-07T11:53:22.053Z,63.31
2022-08-07T11:56:26.918Z,62.86
2022-08-07T12:00:08.034Z,63.14
2022-08-07T12:02:33.431Z,63.02
2022-08-07T12:05:47.503Z,63.06
2022-08-07T12:08:36.903Z,63.86
2022-08-07T12:11:21.280Z,64.69
2022-08-07T12:14:13.220Z,65.14
2022-08-07T12:17:19.882Z,65.72
2022-08-07T12:20:29.746Z,66.21
2022-08-07T12:24:05.479Z,66.10
2022-08-07T12:27:14.971Z,66.03
2022-08-07T12:30:04.459Z,65.87
2022-08-07T12:32:54.289Z,66.37
2022-08-07T12:35:29.283Z,66.04
2022-08-07T12:38:16.117Z,66.11
2022-08-07T12:41:04.858Z,65.50
2022-08-07T12:44:02.572Z,65.78
2022-08-07T12:46:57.460Z,65.67
2022-08-07T12:50:39.649Z,66.29
2022-08-07T12:53:18.106Z,66.38
2022-08-07T12:56:09.282Z,65.95
2022-08-07T12:58:46.778Z,65.94
2022-08-07T13:02:00.031Z,65.53
2022-08-07T13:05:01.217Z,65.79
2022-08-07T13:08:13.771Z,65.93
2022-08-07T13:11:21.567Z,65.50
2022-08-07T13:14:20.744Z,65.60
2022-08-07T13:17:06.483Z,65.37
2022-08-07T13:19:50.538Z,64.72
2022-08-07T13:22:34.091Z,64.72
2022-08-07T13:25:15.171Z,64.70
2022-08-07T13:28:10.646Z,64.69
2022-08-07T13:30:53.184Z,63.57
2022-08-07T13:34:30.293Z,62.28
2022-08-07T13:36:56.469Z,60.59
2022-08-07T13:40:34.346Z,59.70
2022-08-07T13:42:30.206Z,58.06
2022-08-07T13:46:06.684Z,57.66
2022-08-07T13:48:05.282Z,56.00
2022-08-07T13:50:45.295Z,55.48
2022-08-07T13:54:00.874Z,54.74
2022-08-07T13:56:41.234Z,54.26
2022-08-07T13:59:31.832Z,53.75
2022-08-07T14:02:13.878Z,53.31
2022-08-07T14:04:51.612Z,52.65
2022-08-07T14:07:33.675Z,52.44
2022-08-07T14:10:20.503Z,51.71
2022-08-07T14:13:01.756Z,52.00
2022-08-07T14:15:50.471Z,51.15
2022-08-07T14:18:57.149Z,50.79
2022-08-07T14:22:04.283Z,50.78
2022-08-07T14:24:47.540Z,50.76
2022-08-07T14:28:11.659Z,50.04
2022-08-07T14:30:32.411Z,50.52
2022-08-07T14:33:06.848Z,49.33
2022-08-07T14:35:45.541Z,49.30
2022-08-07T14:38:34.663Z,49.34
2022-08-07T14:41:15.062Z,49.50
2022-08-07T14:43:58.700Z,48.78
2022-08-07T14:46:56.473Z,48.39
2022-08-07T14:49:58.416Z,49.13
2022-08-07T14:52:29.216Z,49.06
2022-08-07T14:55:02.967Z,48.45
2022-08-07T14:57:58.069Z,48.66
2022-08-07T15:00:37.133Z,48.15
2022-08-07T15:03:16.618Z,47.78
2022-08-07T15:05:55.242Z,48.16
2022-08-07T15:08:54.565Z,48.04
2022-08-07T15:14:30.549Z,48.04
2022-08-07T15:17:23.491Z,48.20
2022-08-07T15:20:31.501Z,47.79
2022-08-07T15:22:57.311Z,47.55
2022-08-07T15:25:36.963Z,47.27
2022-08-07T15:28:34.585Z,47.93
2022-08-07T15:31:06.796Z,47.68
2022-08-07T15:33:42.781Z,46.99
2022-08-07T15:37:02.738Z,47.46
2022-08-07T15:39:10.676Z,46.76
2022-08-07T15:44:57.878Z,47.10
2022-08-07T15:47:42.797Z,46.34
2022-08-07T15:53:51.761Z,46.49
2022-08-07T15:56:37.638Z,47.02
2022-08-07T15:59:18.529Z,46.95
2022-08-07T16:02:01.669Z,46.79
2022-08-07T16:04:36.945Z,46.30
2022-08-07T16:08:33.393Z,46.60
2022-08-07T16:10:19.458Z,44.90
2022-08-07T16:13:57.469Z,44.81
2022-08-07T16:16:48.037Z,45.20
2022-08-07T16:19:58.774Z,43.98
2022-08-07T16:23:05.253Z,44.56
2022-08-07T16:26:02.697Z,44.04
2022-08-07T16:30:05.973Z,44.39
2022-08-07T16:32:35.351Z,44.33
2022-08-07T16:35:56.925Z,44.73
2022-08-07T16:39:01.549Z,44.14
2022-08-07T16:42:26.267Z,43.66
2022-08-07T16:45:15.190Z,45.17
2022-08-07T16:48:27.723Z,43.90
2022-08-07T16:52:01.704Z,43.46
2022-08-07T16:54:33.016Z,44.57
2022-08-07T16:57:28.818Z,44.16
2022-08-07T17:00:29.772Z,44.55
2022-08-07T17:03:19.201Z,44.25
2022-08-07T17:06:44.861Z,43.46
2022-08-07T17:10:06.724Z,43.13
2022-08-07T17:12:46.219Z,44.32
2022-08-07T17:15:21.271Z,44.38
2022-08-07T17:18:14.392Z,43.26
2022-08-07T17:20:47.515Z,44.47
2022-08-07T17:23:32.583Z,43.95
2022-08-07T17:26:22.648Z,43.02
2022-08-07T17:29:04.576Z,42.72
2022-08-07T17:32:03.371Z,43.21
2022-08-07T17:35:40.603Z,43.37
2022-08-07T17:38:32.035Z,42.83
2022-08-07T17:42:01.962Z,43.07
2022-08-07T17:44:50.198Z,42.81
2022-08-07T17:47:42.856Z,42.78
2022-08-07T17:50:30.161Z,43.75
2022-08-07T17:54:01.120Z,43.00
2022-08-07T17:56:49.845Z,42.47
2022-08-07T17:59:35.993Z,43.20
2022-08-07T18:02:27.200Z,43.20
2022-08-07T18:05:21.356Z,42.11
2022-08-07T18:08:15.511Z,42.29
2022-08-07T18:12:07.107Z,43.10
2022-08-07T18:13:51.906Z,43.61
2022-08-07T18:16:57.995Z,42.64
2022-08-07T18:21:11.697Z,41.98
2022-08-07T18:22:57.388Z,43.27
2022-08-07T18:25:39.400Z,42.23
2022-08-07T18:28:58.327Z,42.15
2022-08-07T18:31:51.158Z,42.68
2022-08-07T18:35:01.926Z,42.63
2022-08-07T18:38:56.012Z,42.52
2022-08-07T18:41:44.729Z,42.59
2022-08-07T18:45:44.736Z,42.66
2022-08-07T18:48:07.454Z,42.15
2022-08-07T18:51:14.936Z,42.06
2022-08-07T18:54:30.468Z,42.41
2022-08-07T18:57:36.813Z,42.44
2022-08-07T19:00:33.546Z,43.14
2022-08-07T19:03:17.884Z,42.48
2022-08-07T19:06:05.487Z,42.41
2022-08-07T19:09:00.257Z,42.36
2022-08-07T19:12:05.469Z,42.54
2022-08-07T19:15:00.804Z,42.83
2022-08-07T19:18:11.287Z,42.51
2022-08-07T19:21:44.973Z,42.48
2022-08-07T19:24:11.987Z,42.82
2022-08-07T19:28:30.496Z,42.95
2022-08-07T19:30:57.666Z,43.26
2022-08-07T19:33:00.257Z,43.40
2022-08-07T19:35:35.087Z,43.24
2022-08-07T19:38:16.957Z,43.00
2022-08-07T19:40:51.691Z,43.30
2022-08-07T19:43:50.052Z,42.37
2022-08-07T19:46:29.169Z,42.52
2022-08-07T19:49:57.521Z,42.40
2022-08-07T19:52:18.405Z,42.94
2022-08-07T19:54:56.376Z,42.90
2022-08-07T19:58:01.398Z,42.78
2022-08-07T20:00:36.281Z,43.04
2022-08-07T20:03:33.492Z,42.61
2022-08-07T20:06:15.612Z,42.77
2022-08-07T20:09:03.471Z,42.86
2022-08-07T20:12:22.879Z,42.83
2022-08-07T20:14:54.033Z,42.82
2022-08-07T20:17:38.644Z,42.44
2022-08-07T20:20:12.040Z,42.69
2022-08-07T20:22:48.734Z,42.76
2022-08-07T20:25:21.224Z,42.90
2022-08-07T20:27:58.545Z,42.80
2022-08-07T20:30:37.815Z,42.48
2022-08-07T20:33:36.545Z,42.47
2022-08-07T20:36:08.947Z,42.77
2022-08-07T20:38:53.793Z,42.72
2022-08-07T20:41:38.346Z,42.40
2022-08-07T20:44:13.433Z,43.07
2022-08-07T20:46:48.311Z,42.93
2022-08-07T20:49:59.820Z,42.36
2022-08-07T20:52:51.196Z,42.52
2022-08-07T20:55:25.922Z,42.49
2022-08-07T20:58:11.915Z,41.73
2022-08-07T21:00:58.033Z,42.62
2022-08-07T21:03:31.999Z,42.65
2022-08-07T21:06:21.678Z,42.71
2022-08-07T21:09:13.703Z,42.94
2022-08-07T21:11:51.151Z,43.03
2022-08-07T21:14:34.802Z,42.84
2022-08-07T21:18:03.444Z,42.11
2022-08-07T21:20:09.963Z,42.41
2022-08-07T21:22:51.301Z,42.80
2022-08-07T21:25:44.655Z,43.10
2022-08-07T21:28:48.654Z,43.50
2022-08-07T21:32:10.929Z,43.15
2022-08-07T21:35:08.063Z,43.30
2022-08-07T21:38:03.948Z,43.27
2022-08-07T21:41:01.529Z,42.99
2022-08-07T21:43:59.092Z,43.24
2022-08-07T21:46:51.742Z,43.08
2022-08-07T21:50:02.164Z,43.01
2022-08-07T21:52:44.176Z,43.43
2022-08-07T21:55:29.940Z,42.58
2022-08-07T21:58:22.169Z,42.60
2022-08-07T22:01:13.930Z,42.52
2022-08-07T22:03:58.861Z,42.61
2022-08-07T22:06:44.974Z,42.74
2022-08-07T22:09:26.964Z,42.67
2022-08-07T22:12:11.280Z,42.75
2022-08-07T22:16:42.712Z,42.90
2022-08-07T22:18:35.820Z,43.34
2022-08-07T22:21:24.021Z,44.21
2022-08-07T22:24:22.151Z,44.02
2022-08-07T22:27:16.013Z,43.93
2022-08-07T22:29:54.185Z,44.50
2022-08-07T22:32:42.481Z,45.23
2022-08-07T22:35:15.835Z,45.09
2022-08-07T22:38:03.455Z,45.35
2022-08-07T22:40:46.961Z,45.02
2022-08-07T22:43:31.478Z,45.13
2022-08-07T22:47:02.190Z,45.17
2022-08-07T22:49:55.066Z,45.19
2022-08-07T22:53:07.807Z,45.19
2022-08-07T22:56:05.153Z,45.17
2022-08-07T22:59:04.950Z,45.33
2022-08-07T23:02:06.351Z,46.35
2022-08-07T23:06:07.066Z,48.30
2022-08-07T23:08:30.665Z,49.48
2022-08-07T23:11:41.304Z,50.66
2022-08-07T23:14:50.060Z,51.66
2022-08-07T23:17:41.583Z,51.86
2022-08-07T23:20:51.472Z,52.34
2022-08-07T23:24:06.251Z,53.46
2022-08-07T23:27:03.778Z,54.06
2022-08-07T23:30:35.419Z,54.58
2022-08-07T23:34:20.708Z,61.03
2022-08-07T23:35:45.602Z,65.02
2022-08-07T23:38:42.246Z,66.38
2022-08-07T23:42:01.677Z,67.80
2022-08-07T23:45:15.294Z,68.80
2022-08-07T23:48:05.263Z,69.04
2022-08-07T23:53:00.536Z,70.62
2022-08-07T23:54:36.040Z,70.17
2022-08-07T23:57:30.378Z,71.41
